Time;durP1;ratioP1;P1;durP2;ratioP2;P2;SDS_P1;SDS_P2;PMS_P1;PMS_P2;Temp;Humidity;BMP_temperature;BMP_pressure;BME280_temperature;BME280_humidity;BME280_pressure;Samples;Min_cycle;Max_cycle;Signal;HPM_P1;HPM_P2
2022/05/05 00:00:23;;;;;;;14.57;9.40;;;;;;;12.73;55.82;101877.41;5213986;28;20029;-83
2022/05/05 00:02:54;;;;;;;12.27;8.63;;;;;;;12.55;55.82;101885.31;5210787;28;20026;-79
2022/05/05 00:05:25;;;;;;;11.63;8.97;;;;;;;12.48;56.12;101878.69;5212367;28;20831;-83
2022/05/05 00:07:56;;;;;;;13.23;8.90;;;;;;;12.52;56.20;101882.88;5209569;28;20114;-83
2022/05/05 00:16:07;;;;;;;12.63;8.53;;;;;;;12.94;54.92;101891.22;5212244;28;20045;-84
2022/05/05 00:18:39;;;;;;;15.97;9.10;;;;;;;12.88;54.72;101878.38;5208992;28;20026;-83
2022/05/05 00:21:10;;;;;;;10.93;8.70;;;;;;;12.40;56.51;101894.00;5210910;28;20026;-84
2022/05/05 00:23:41;;;;;;;12.13;8.87;;;;;;;12.80;55.11;101875.31;5210022;28;20025;-84
2022/05/05 00:26:12;;;;;;;16.57;8.37;;;;;;;12.91;55.00;101883.50;5212853;28;20034;-84
2022/05/05 00:28:44;;;;;;;14.80;9.37;;;;;;;12.54;56.32;101893.28;5212353;28;20077;-83
2022/05/05 00:31:15;;;;;;;16.03;9.83;;;;;;;12.74;55.54;101884.38;5210819;28;20029;-83
2022/05/05 00:33:46;;;;;;;11.93;9.27;;;;;;;12.53;56.22;101884.56;5212300;28;20018;-83
2022/05/05 00:36:18;;;;;;;13.90;9.10;;;;;;;12.23;56.82;101877.31;5215042;28;20101;-84
2022/05/05 00:38:49;;;;;;;12.73;9.27;;;;;;;11.98;57.58;101876.75;5209323;28;20034;-83
2022/05/05 00:41:21;;;;;;;14.93;9.30;;;;;;;11.93;57.84;101883.13;5212732;28;20034;-83
2022/05/05 00:43:52;;;;;;;14.73;9.37;;;;;;;12.41;56.64;101882.56;5206118;28;20025;-83
2022/05/05 00:46:23;;;;;;;11.53;8.70;;;;;;;12.46;56.62;101881.41;5218285;28;20147;-83
2022/05/05 00:48:55;;;;;;;12.70;8.63;;;;;;;12.09;57.81;101884.13;5209832;28;20121;-84
2022/05/05 00:51:27;;;;;;;16.30;9.50;;;;;;;11.71;59.40;101876.31;5212075;28;20034;-84
2022/05/05 00:53:58;;;;;;;14.67;9.20;;;;;;;11.78;59.57;101875.06;5211378;28;20040;-84
2022/05/05 00:56:29;;;;;;;14.63;8.83;;;;;;;11.81;59.19;101888.06;5207435;28;20023;-83
2022/05/05 00:59:01;;;;;;;13.73;9.93;;;;;;;11.78;59.18;101876.88;5211402;28;20792;-82
2022/05/05 01:01:33;;;;;;;13.77;8.70;;;;;;;11.89;59.19;101871.06;5211496;28;20029;-81
2022/05/05 01:04:07;;;;;;;14.63;9.17;;;;;;;11.74;59.94;101879.66;5207013;28;20042;-83
2022/05/05 01:06:39;;;;;;;15.80;9.57;;;;;;;11.77;59.80;101872.53;5208527;28;20065;-84
2022/05/05 01:09:10;;;;;;;15.03;9.17;;;;;;;11.67;59.84;101877.38;5210113;28;20416;-83
2022/05/05 01:11:41;;;;;;;17.97;10.20;;;;;;;12.03;58.95;101884.38;5210837;28;20041;-84
2022/05/05 01:14:15;;;;;;;14.00;9.20;;;;;;;12.21;58.57;101880.03;5218229;22;20378;-85
2022/05/05 01:16:46;;;;;;;13.87;8.87;;;;;;;12.13;58.76;101876.09;5210977;28;20056;-76
2022/05/05 01:19:17;;;;;;;16.10;8.90;;;;;;;11.86;59.73;101880.81;5197059;28;20832;-82
2022/05/05 01:21:53;;;;;;;9.97;8.60;;;;;;;11.94;59.16;101876.94;5207997;28;20100;-83
2022/05/05 01:30:12;;;;;;;15.00;9.23;;;;;;;11.77;60.62;101870.75;5203198;28;20608;-83
2022/05/05 01:32:43;;;;;;;12.40;9.83;;;;;;;11.44;61.64;101867.06;5184721;28;20026;-84
2022/05/05 01:35:14;;;;;;;12.27;9.47;;;;;;;11.66;60.88;101860.78;5209835;28;20018;-84
2022/05/05 01:37:45;;;;;;;14.90;10.30;;;;;;;11.94;59.93;101869.06;5210765;28;20022;-84
2022/05/05 01:40:17;;;;;;;15.87;9.23;;;;;;;11.28;62.07;101850.31;5197141;28;20041;-82
2022/05/05 01:42:48;;;;;;;12.83;9.53;;;;;;;11.51;61.65;101872.88;5212120;28;20488;-83
2022/05/05 01:45:20;;;;;;;12.23;9.37;;;;;;;11.36;62.14;101856.91;5225072;28;20018;-83
2022/05/05 01:47:51;;;;;;;11.50;9.17;;;;;;;11.47;62.39;101871.28;5195652;28;20033;-84
2022/05/05 01:50:22;;;;;;;14.70;9.20;;;;;;;11.62;61.45;101864.50;5190508;28;20026;-84
2022/05/05 01:52:54;;;;;;;13.03;9.20;;;;;;;11.83;60.83;101865.19;5201574;28;20014;-84
2022/05/05 01:55:26;;;;;;;12.40;8.53;;;;;;;11.98;60.22;101863.63;5196523;28;20029;-84
2022/05/05 01:57:58;;;;;;;12.67;8.33;;;;;;;12.08;60.37;101871.00;5212540;28;20064;-84
2022/05/05 02:00:31;;;;;;;15.10;9.90;;;;;;;12.08;60.29;101881.53;5205784;28;20060;-83
2022/05/05 02:03:02;;;;;;;16.87;8.80;;;;;;;12.22;59.83;101884.34;5208745;28;20125;-83
2022/05/05 02:05:33;;;;;;;12.87;9.53;;;;;;;12.20;60.07;101880.13;5211370;28;20104;-84
2022/05/05 02:08:05;;;;;;;15.40;9.37;;;;;;;11.89;61.13;101886.81;5194828;28;20027;-84
2022/05/05 02:10:36;;;;;;;13.67;9.00;;;;;;;11.91;60.90;101870.09;5176226;28;20038;-84
2022/05/05 02:13:09;;;;;;;13.30;9.13;;;;;;;12.20;60.11;101885.38;5211324;28;20073;-82
2022/05/05 02:15:40;;;;;;;13.03;9.07;;;;;;;11.97;61.44;101880.28;5209096;28;20065;-83
2022/05/05 02:18:13;;;;;;;13.23;9.73;;;;;;;12.18;60.62;101882.78;5205791;28;20062;-83
2022/05/05 02:20:44;;;;;;;14.93;9.37;;;;;;;12.25;60.20;101887.75;5193763;28;20647;-84
2022/05/05 02:23:15;;;;;;;13.73;10.17;;;;;;;12.22;60.26;101879.09;5194844;28;20159;-84
2022/05/05 02:25:47;;;;;;;17.00;9.70;;;;;;;12.27;60.06;101878.03;5209982;28;20038;-84
2022/05/05 02:28:18;;;;;;;16.67;10.13;;;;;;;12.20;60.02;101882.75;5194540;28;20910;-84
2022/05/05 02:30:49;;;;;;;18.73;10.43;;;;;;;12.30;59.86;101885.75;5224704;28;20030;-83
2022/05/05 02:33:21;;;;;;;18.50;9.67;;;;;;;11.95;61.25;101868.16;5195304;28;20091;-84
2022/05/05 02:38:42;;;;;;;13.70;10.23;;;;;;;12.10;60.73;101880.56;5210985;28;20036;-83
2022/05/05 02:38:43;;;;;;;18.43;9.90;;;;;;;12.28;59.85;101890.22;5197779;28;20074;-84
2022/05/05 02:41:15;;;;;;;15.87;9.67;;;;;;;12.31;60.01;101885.66;5195423;28;20527;-84
2022/05/05 02:43:46;;;;;;;17.27;9.70;;;;;;;12.28;59.89;101875.31;5206287;28;20450;-84
2022/05/05 02:46:17;;;;;;;14.77;10.27;;;;;;;12.04;61.30;101880.00;5211068;28;20045;-84
2022/05/05 02:48:48;;;;;;;15.30;10.33;;;;;;;12.16;60.76;101876.78;5194445;28;20023;-84
2022/05/05 02:51:20;;;;;;;13.57;9.33;;;;;;;12.29;60.35;101889.28;5192736;28;20041;-86
2022/05/05 02:56:41;;;;;;;13.80;10.83;;;;;;;11.83;62.01;101883.56;5206899;28;20035;-85
2022/05/05 02:59:12;;;;;;;14.73;9.37;;;;;;;11.61;62.92;101873.25;5222483;28;20380;-83
2022/05/05 03:01:44;;;;;;;13.37;10.17;;;;;;;11.66;63.06;101876.53;5203171;28;20030;-84
2022/05/05 03:04:15;;;;;;;11.60;9.20;;;;;;;11.78;62.87;101884.75;5195268;28;20057;-84
2022/05/05 03:06:46;;;;;;;15.77;10.93;;;;;;;11.56;63.76;101883.13;5191496;28;20038;-83
2022/05/05 03:09:19;;;;;;;15.10;10.23;;;;;;;11.66;64.02;101887.00;5190751;28;20115;-82
2022/05/05 03:11:50;;;;;;;13.83;9.27;;;;;;;11.55;64.51;101882.31;5195834;28;20625;-83
2022/05/05 03:14:21;;;;;;;12.20;8.83;;;;;;;11.53;65.14;101876.28;5209940;28;20200;-83
2022/05/05 03:16:52;;;;;;;12.00;9.63;;;;;;;11.45;65.46;101875.78;5203672;28;20039;-83
2022/05/05 03:19:24;;;;;;;13.07;9.23;;;;;;;11.63;64.83;101887.16;5187512;28;20014;-84
2022/05/05 03:21:56;;;;;;;17.07;10.10;;;;;;;11.57;65.27;101877.81;5198583;28;20084;-83
2022/05/05 03:24:27;;;;;;;14.87;8.97;;;;;;;11.57;65.40;101884.84;5196253;28;20511;-84
2022/05/05 03:27:00;;;;;;;16.07;9.43;;;;;;;11.53;65.63;101880.66;5212593;28;20482;-83
2022/05/05 03:29:32;;;;;;;15.37;9.70;;;;;;;11.78;64.54;101885.56;5199418;28;20037;-82
2022/05/05 03:32:03;;;;;;;12.10;8.43;;;;;;;11.62;65.24;101880.22;5192897;28;20064;-83
2022/05/05 03:34:35;;;;;;;12.10;8.77;;;;;;;11.86;64.33;101887.84;5199919;28;20071;-83
2022/05/05 03:37:06;;;;;;;12.57;9.43;;;;;;;11.68;64.93;101886.94;5200924;28;20026;-83
2022/05/05 03:39:37;;;;;;;16.17;10.17;;;;;;;11.55;66.22;101884.94;5205229;28;20045;-83
2022/05/05 03:42:09;;;;;;;12.00;9.17;;;;;;;11.71;65.21;101889.44;5213502;28;20064;-84
2022/05/05 03:44:40;;;;;;;11.30;8.47;;;;;;;11.89;64.49;101897.31;5214584;28;20109;-83
2022/05/05 03:47:11;;;;;;;12.23;9.13;;;;;;;11.58;66.33;101892.63;5197768;28;20030;-83
2022/05/05 03:49:43;;;;;;;14.40;9.37;;;;;;;11.64;65.93;101898.53;5188696;28;20094;-83
2022/05/05 03:52:14;;;;;;;14.40;8.90;;;;;;;11.55;66.56;101898.03;5212360;28;20033;-83
2022/05/05 03:54:45;;;;;;;10.57;8.57;;;;;;;11.36;66.74;101885.75;5214254;28;20034;-84
2022/05/05 03:57:17;;;;;;;14.40;9.37;;;;;;;11.50;66.79;101900.84;5212528;28;20065;-84
2022/05/05 03:59:48;;;;;;;13.23;9.43;;;;;;;11.37;67.24;101903.22;5204891;28;20044;-84
2022/05/05 04:02:19;;;;;;;15.80;9.13;;;;;;;11.34;67.69;101906.00;5227936;28;20029;-83
2022/05/05 04:04:50;;;;;;;9.77;8.43;;;;;;;11.47;67.07;101913.25;5205263;28;20041;-83
2022/05/05 04:07:22;;;;;;;13.40;9.43;;;;;;;11.29;67.60;101913.22;5222225;28;20045;-84
2022/05/05 04:09:54;;;;;;;15.17;9.77;;;;;;;11.70;66.18;101911.34;5180360;28;20038;-82
2022/05/05 04:12:25;;;;;;;14.83;9.53;;;;;;;11.41;67.71;101919.66;5195121;28;20030;-82
2022/05/05 04:14:56;;;;;;;14.63;9.40;;;;;;;11.59;66.38;101899.59;5229155;28;20116;-84
2022/05/05 04:17:27;;;;;;;14.30;9.73;;;;;;;11.56;67.15;101923.34;5188657;28;20043;-81
2022/05/05 04:19:59;;;;;;;16.63;10.07;;;;;;;11.51;67.53;101920.09;5193441;28;20042;-83
2022/05/05 04:22:30;;;;;;;14.60;9.70;;;;;;;11.46;67.06;101916.81;5198402;28;20069;-83
2022/05/05 04:25:01;;;;;;;11.17;9.00;;;;;;;11.35;68.26;101923.41;5210632;28;20030;-83
2022/05/05 04:27:33;;;;;;;15.13;9.93;;;;;;;11.34;68.73;101923.50;5191324;28;20468;-84
2022/05/05 04:30:05;;;;;;;14.07;9.17;;;;;;;11.72;66.71;101926.09;5205841;28;20059;-84
2022/05/05 04:32:37;;;;;;;15.07;10.00;;;;;;;11.45;68.09;101925.63;5212793;28;20022;-83
2022/05/05 04:35:08;;;;;;;13.87;9.27;;;;;;;11.60;67.73;101937.16;5220798;28;20076;-81
2022/05/05 04:37:40;;;;;;;12.33;9.50;;;;;;;11.45;68.26;101936.13;5213165;28;20125;-83
2022/05/05 04:40:11;;;;;;;12.83;9.47;;;;;;;11.59;67.60;101938.09;5193340;28;20058;-83
2022/05/05 04:42:42;;;;;;;15.73;10.07;;;;;;;11.45;68.21;101936.13;5196273;28;20025;-84
2022/05/05 04:45:13;;;;;;;14.73;10.47;;;;;;;11.47;68.49;101939.50;5194115;28;20022;-83
2022/05/05 04:47:45;;;;;;;16.43;10.10;;;;;;;11.46;68.51;101932.56;5197848;28;20050;-84
2022/05/05 04:50:17;;;;;;;18.00;10.60;;;;;;;11.43;68.59;101935.34;5190746;28;20025;-83
2022/05/05 04:52:48;;;;;;;14.73;9.63;;;;;;;11.58;68.11;101937.25;5184485;28;20045;-83
2022/05/05 04:55:19;;;;;;;19.87;11.20;;;;;;;11.47;68.62;101950.00;5191831;28;20040;-83
2022/05/05 04:57:50;;;;;;;15.23;11.37;;;;;;;11.30;69.15;101951.63;5190391;28;20022;-83
2022/05/05 05:00:22;;;;;;;14.77;10.87;;;;;;;11.43;68.87;101949.28;5187890;28;20034;-83
2022/05/05 05:02:53;;;;;;;20.60;11.13;;;;;;;11.46;68.65;101951.78;5190221;28;20026;-83
2022/05/05 05:05:25;;;;;;;14.30;10.70;;;;;;;11.22;69.63;101951.13;5191196;28;20584;-83
2022/05/05 05:07:56;;;;;;;15.00;11.67;;;;;;;11.27;69.45;101959.63;5206858;28;20027;-83
2022/05/05 05:10:27;;;;;;;18.47;11.37;;;;;;;11.30;69.62;101956.00;5184080;28;20035;-83
2022/05/05 05:12:58;;;;;;;17.53;11.80;;;;;;;11.25;69.54;101958.84;5192817;28;20026;-75
2022/05/05 05:15:30;;;;;;;20.37;11.07;;;;;;;11.27;69.87;101964.88;5211817;28;20091;-84
2022/05/05 05:18:01;;;;;;;15.77;11.07;;;;;;;11.27;69.74;101961.41;5206115;28;20092;-83
2022/05/05 05:20:32;;;;;;;16.47;11.17;;;;;;;11.31;69.61;101969.06;5194313;28;20512;-83
2022/05/05 05:23:04;;;;;;;22.83;11.67;;;;;;;11.23;70.25;101973.78;5203298;28;20062;-82
2022/05/05 05:25:35;;;;;;;22.70;13.03;;;;;;;11.37;69.55;101967.94;5205589;28;20366;-83
2022/05/05 05:28:06;;;;;;;23.90;11.83;;;;;;;11.28;70.04;101966.56;5191079;28;20022;-83
2022/05/05 05:30:38;;;;;;;17.57;10.93;;;;;;;11.32;70.29;101968.16;5187594;28;20030;-84
2022/05/05 05:33:09;;;;;;;15.57;11.07;;;;;;;11.28;70.77;101978.81;5189702;28;20018;-84
2022/05/05 05:35:41;;;;;;;19.07;11.53;;;;;;;11.55;69.13;101970.66;5189369;28;20033;-84
2022/05/05 05:38:18;;;;;;;19.13;12.20;;;;;;;11.51;70.13;101972.56;5191388;28;20026;-83
2022/05/05 05:40:49;;;;;;;16.00;12.17;;;;;;;11.45;70.27;101972.84;5184948;28;20033;-83
2022/05/05 05:43:20;;;;;;;16.47;12.23;;;;;;;11.50;70.43;101981.34;5191527;28;20038;-83
2022/05/05 05:45:52;;;;;;;21.73;11.40;;;;;;;11.48;70.69;101980.56;5187060;28;20419;-83
2022/05/05 05:48:23;;;;;;;18.87;11.97;;;;;;;11.51;70.55;101977.81;5193297;28;20433;-83
2022/05/05 05:50:55;;;;;;;21.97;12.63;;;;;;;11.50;70.44;101979.56;5188725;28;20030;-82
2022/05/05 05:53:26;;;;;;;19.83;12.20;;;;;;;11.55;70.13;101979.38;5191469;28;20701;-83
2022/05/05 05:55:58;;;;;;;17.87;12.50;;;;;;;11.40;71.55;101980.06;5190277;28;20481;-83
2022/05/05 05:58:29;;;;;;;20.73;12.90;;;;;;;11.73;70.00;101982.03;5185703;28;20037;-84
2022/05/05 06:01:00;;;;;;;19.07;11.87;;;;;;;11.53;70.98;101991.69;5202976;28;20432;-81
2022/05/05 06:06:24;;;;;;;24.80;13.27;;;;;;;11.74;70.54;101989.00;5190617;28;20408;-83
2022/05/05 06:08:55;;;;;;;22.17;13.87;;;;;;;11.85;70.09;102001.66;5190317;28;20034;-82
2022/05/05 06:11:26;;;;;;;23.40;13.23;;;;;;;11.89;69.33;101999.69;5180657;28;20045;-84
2022/05/05 06:13:58;;;;;;;16.63;12.17;;;;;;;12.11;68.32;101989.09;5189599;28;20081;-84
2022/05/05 06:16:29;;;;;;;21.90;12.53;;;;;;;12.13;69.10;101991.63;5189577;28;20374;-83
2022/05/05 06:19:00;;;;;;;20.40;13.87;;;;;;;12.23;68.39;101995.53;5189186;28;20030;-83
2022/05/05 06:21:32;;;;;;;25.50;13.50;;;;;;;12.18;68.40;101994.88;5200949;28;20035;-75
2022/05/05 06:24:03;;;;;;;23.53;13.07;;;;;;;12.26;67.92;101999.75;5187101;28;20028;-84
2022/05/05 06:26:35;;;;;;;23.37;13.70;;;;;;;12.19;66.10;101993.94;5189155;28;20038;-84
2022/05/05 06:29:06;;;;;;;19.53;13.80;;;;;;;12.26;66.00;101997.13;5189808;28;20057;-84
2022/05/05 06:31:37;;;;;;;25.00;14.57;;;;;;;12.36;65.48;102000.19;5184884;28;20081;-85
2022/05/05 06:34:10;;;;;;;22.97;13.90;;;;;;;12.43;66.09;102001.56;5189904;28;20039;-84
2022/05/05 06:36:41;;;;;;;30.13;14.73;;;;;;;12.38;64.94;102000.94;5189816;28;20125;-84
2022/05/05 06:39:12;;;;;;;22.13;13.73;;;;;;;12.62;63.04;102006.75;5187272;28;20109;-84
2022/05/05 06:41:44;;;;;;;19.03;13.03;;;;;;;12.57;62.96;102007.00;5189099;28;20030;-84
2022/05/05 06:44:15;;;;;;;20.20;13.97;;;;;;;12.62;62.57;101998.03;5188530;28;20038;-84
2022/05/05 06:46:47;;;;;;;22.87;13.57;;;;;;;12.74;61.94;102000.00;5188983;28;20072;-84
2022/05/05 06:49:18;;;;;;;21.37;14.47;;;;;;;12.89;60.93;102005.44;5189824;28;20030;-84
2022/05/05 06:51:50;;;;;;;25.57;14.13;;;;;;;12.99;61.77;102003.16;5172841;28;20480;-84
2022/05/05 06:54:21;;;;;;;23.83;15.17;;;;;;;13.08;61.10;102002.72;5185343;28;20435;-83
2022/05/05 06:56:54;;;;;;;29.23;17.10;;;;;;;13.17;61.03;102007.50;5186734;28;20025;-83
2022/05/05 06:59:25;;;;;;;31.53;19.10;;;;;;;13.35;60.88;102009.25;5183232;28;20026;-83
2022/05/05 07:02:02;;;;;;;29.00;18.60;;;;;;;13.51;61.16;102010.09;5187619;28;20065;-84
2022/05/05 07:07:23;;;;;;;35.23;22.90;;;;;;;14.07;60.92;102018.59;5187265;28;20046;-73
2022/05/05 07:12:44;;;;;;;40.87;26.67;;;;;;;14.56;59.72;102024.59;5191826;28;20046;-83
2022/05/05 07:15:15;;;;;;;40.97;27.23;;;;;;;14.82;58.39;102028.38;5209591;28;20133;-82
2022/05/05 07:17:48;;;;;;;32.30;26.53;;;;;;;15.11;57.59;102023.16;5190115;28;20080;-84
2022/05/05 07:20:19;;;;;;;41.80;28.97;;;;;;;15.29;56.85;102030.06;5188253;28;20193;-83
2022/05/05 07:22:53;;;;;;;40.23;29.80;;;;;;;15.63;56.30;102032.38;5210105;28;20085;-83
2022/05/05 07:25:25;;;;;;;;;;;;;;;16.32;56.33;102036.84;5188799;28;20030;-83
2022/05/05 07:27:57;;;;;;;45.30;30.23;;;;;;;16.50;54.91;102039.25;5192638;28;19996;-83
2022/05/05 07:30:28;;;;;;;42.43;28.67;;;;;;;16.92;53.64;102033.81;5211208;28;20034;-84
2022/05/05 07:33:01;;;;;;;38.80;28.87;;;;;;;17.14;52.61;102035.03;5185634;28;20034;-82
2022/05/05 07:35:33;;;;;;;39.60;29.63;;;;;;;17.40;51.76;102035.84;5191341;28;20026;-83
2022/05/05 07:38:05;;;;;;;46.07;32.77;;;;;;;17.94;51.41;102034.78;5190987;28;20056;-84
2022/05/05 07:40:37;;;;;;;37.97;28.57;;;;;;;18.30;50.08;102048.13;5189210;28;20040;-80
2022/05/05 07:43:10;;;;;;;39.47;32.60;;;;;;;18.47;48.91;102037.09;5189887;28;20479;-84
2022/05/05 07:45:41;;;;;;;42.93;31.03;;;;;;;18.92;48.29;102047.97;5190200;28;20040;-82
2022/05/05 07:48:12;;;;;;;41.47;29.53;;;;;;;19.06;47.13;102045.09;5189755;28;20042;-83
2022/05/05 07:50:44;;;;;;;42.97;30.47;;;;;;;18.93;47.46;102044.34;5187950;28;20104;-84
2022/05/05 07:53:16;;;;;;;40.83;30.10;;;;;;;18.99;48.20;102051.81;5188563;28;20030;-85
2022/05/05 07:55:47;;;;;;;40.63;30.17;;;;;;;19.48;46.89;102042.84;5190678;28;20022;-85
2022/05/05 07:58:18;;;;;;;39.73;28.17;;;;;;;19.21;47.41;102053.72;5189040;28;20038;-84
2022/05/05 08:00:50;;;;;;;33.00;27.40;;;;;;;19.01;47.13;102052.56;5188295;28;20192;-84
2022/05/05 08:03:21;;;;;;;35.87;28.27;;;;;;;19.54;46.42;102053.84;5188243;28;20034;-83
2022/05/05 08:05:53;;;;;;;35.23;28.73;;;;;;;20.13;45.57;102058.09;5189907;28;20062;-83
2022/05/05 08:08:25;;;;;;;34.40;29.27;;;;;;;20.26;44.42;102058.78;5203154;28;20037;-84
2022/05/05 08:10:56;;;;;;;34.43;26.70;;;;;;;20.30;43.94;102059.34;5186232;28;20034;-84
2022/05/05 08:13:28;;;;;;;32.30;25.87;;;;;;;20.74;44.25;102059.28;5189370;28;20053;-84
2022/05/05 08:15:59;;;;;;;31.37;27.20;;;;;;;20.98;43.29;102052.88;5190227;28;20054;-84
2022/05/05 08:18:30;;;;;;;34.13;27.87;;;;;;;20.90;42.67;102058.81;5192226;28;20045;-84
2022/05/05 08:21:01;;;;;;;33.83;28.90;;;;;;;20.45;43.40;102057.25;5186612;28;20065;-84
2022/05/05 08:23:33;;;;;;;35.90;28.63;;;;;;;20.23;43.33;102061.69;5190078;28;20034;-83
2022/05/05 08:28:54;;;;;;;39.27;30.30;;;;;;;19.61;43.96;102063.97;5188549;28;20042;-83
2022/05/05 08:31:26;;;;;;;34.57;29.07;;;;;;;19.62;44.43;102073.63;5182436;28;20370;-75
2022/05/05 08:33:57;;;;;;;34.63;28.33;;;;;;;19.39;45.26;102066.50;5190384;28;20034;-83
2022/05/05 08:36:28;;;;;;;43.43;34.20;;;;;;;19.19;46.25;102082.19;5189335;28;20049;-75
2022/05/05 08:38:59;;;;;;;42.33;35.03;;;;;;;18.97;47.23;102080.31;5187883;28;20028;-75
2022/05/05 08:41:31;;;;;;;42.40;35.73;;;;;;;18.66;47.85;102075.50;5187153;28;20027;-78
2022/05/05 08:44:02;;;;;;;44.47;35.00;;;;;;;18.43;48.27;102082.56;5190098;28;20284;-79
2022/05/05 08:46:34;;;;;;;42.43;34.97;;;;;;;18.33;48.80;102075.25;5170514;28;20058;-77
2022/05/05 08:49:07;;;;;;;42.40;33.13;;;;;;;18.20;48.78;102091.25;5190480;28;20022;-76
2022/05/05 08:51:45;;;;;;;44.63;33.90;;;;;;;18.12;49.69;102091.75;5190286;28;20041;-78
2022/05/05 08:54:17;;;;;;;45.03;35.27;;;;;;;17.65;50.58;102091.53;5187984;28;20033;-77
2022/05/05 08:56:50;;;;;;;44.17;35.50;;;;;;;17.81;50.61;102091.31;5189626;28;20037;-81
2022/05/05 08:59:22;;;;;;;46.37;36.07;;;;;;;17.70;50.48;102086.75;5204546;28;20026;-82
2022/05/05 09:01:53;;;;;;;45.70;34.30;;;;;;;17.82;50.32;102081.56;5182305;28;20085;-75
2022/05/05 09:04:24;;;;;;;42.30;34.20;;;;;;;17.91;50.71;102096.78;5187411;28;20022;-78
2022/05/05 09:06:56;;;;;;;48.97;34.63;;;;;;;17.76;50.60;102091.66;5187560;28;20076;-84
2022/05/05 09:09:28;;;;;;;40.37;33.87;;;;;;;18.04;50.83;102096.78;5186874;28;20117;-78
2022/05/05 09:12:13;;;;;;;50.47;32.93;;;;;;;18.28;49.96;102090.66;5186698;28;20050;-77
2022/05/05 09:14:45;;;;;;;42.33;34.85;;;;;;;17.92;51.08;102095.00;5193739;28;20394;-78
2022/05/05 09:17:18;;;;;;;42.10;33.57;;;;;;;18.07;50.67;102096.53;5187748;28;20036;-77
2022/05/05 09:19:52;;;;;;;39.50;32.17;;;;;;;18.19;50.80;102101.94;5189238;28;20445;-77
2022/05/05 09:22:25;;;;;;;42.55;32.15;;;;;;;18.51;49.32;102098.72;5183440;28;20440;-72
2022/05/05 09:24:57;;;;;;;37.23;31.43;;;;;;;18.58;48.72;102107.09;5188050;28;20026;-78
2022/05/05 09:27:31;;;;;;;36.57;29.20;;;;;;;18.77;48.42;102103.91;5188384;28;20646;-77
2022/05/05 09:30:08;;;;;;;45.60;32.10;;;;;;;18.84;48.37;102101.63;5187840;28;20100;-76
2022/05/05 09:32:44;;;;;;;35.57;29.90;;;;;;;18.99;47.82;102103.13;5184938;28;20018;-77
2022/05/05 09:35:18;;;;;;;39.07;30.93;;;;;;;18.99;47.64;102112.88;5186896;28;20038;-75
2022/05/05 09:37:52;;;;;;;43.40;33.17;;;;;;;18.88;47.06;102110.19;5189988;28;20475;-77
2022/05/05 09:40:24;;;;;;;39.77;32.33;;;;;;;18.96;47.56;102103.34;5185826;28;20053;-78
2022/05/05 09:42:55;;;;;;;39.30;31.90;;;;;;;18.98;47.40;102096.13;5186363;28;20034;-77
2022/05/05 09:45:43;;;;;;;44.80;33.20;;;;;;;19.02;48.12;102112.66;5187606;28;20037;-80
2022/05/05 09:48:14;;;;;;;37.07;31.43;;;;;;;19.00;48.20;102109.28;5187694;28;20046;-77
2022/05/05 09:50:50;;;;;;;38.97;33.10;;;;;;;18.85;48.29;102120.09;5186384;28;20026;-78
2022/05/05 09:59:29;;;;;;;37.57;30.90;;;;;;;18.95;48.70;102130.88;5187747;28;20042;-80
2022/05/05 10:02:12;;;;;;;41.30;31.53;;;;;;;18.96;48.27;102123.72;5181232;28;20461;-83
2022/05/05 10:04:51;;;;;;;43.90;32.83;;;;;;;19.21;47.96;102114.78;5182342;28;20771;-83
2022/05/05 10:07:22;;;;;;;42.07;32.90;;;;;;;19.08;47.86;102120.16;5187494;28;20453;-82
2022/05/05 10:09:53;;;;;;;38.50;32.07;;;;;;;19.10;47.17;102120.88;5185921;28;20073;-80
2022/05/05 10:12:27;;;;;;;38.57;31.53;;;;;;;18.98;47.14;102127.13;5170562;28;20045;-76
2022/05/05 10:14:59;;;;;;;38.47;33.15;;;;;;;19.42;46.31;102124.72;5176063;28;20054;-79
2022/05/05 10:17:34;;;;;;;41.10;32.57;;;;;;;19.56;46.80;102125.44;5175347;28;20054;-79
2022/05/05 10:20:06;;;;;;;44.97;32.93;;;;;;;19.42;46.91;102119.41;5176518;28;20312;-77
2022/05/05 10:23:17;;;;;;;39.83;33.13;;;;;;;19.72;46.56;102119.78;5174948;28;20073;-80
2022/05/05 10:25:52;;;;;;;37.10;31.80;;;;;;;19.83;46.28;102122.41;5175491;28;20089;-79
2022/05/05 10:28:38;;;;;;;37.87;31.83;;;;;;;20.19;45.06;102129.41;5176188;28;20085;-76
2022/05/05 10:31:30;;;;;;;38.93;32.43;;;;;;;20.22;44.69;102126.50;5189177;28;20038;-80
2022/05/05 10:34:08;;;;;;;38.67;32.63;;;;;;;20.22;44.56;102126.50;5180973;28;20046;-78
2022/05/05 10:36:39;;;;;;;45.00;33.03;;;;;;;20.21;45.26;102124.81;5176832;28;20022;-78
2022/05/05 10:39:19;;;;;;;39.77;29.83;;;;;;;20.34;44.17;102129.13;5174237;28;20037;-79
2022/05/05 10:41:51;;;;;;;35.50;30.23;;;;;;;20.34;44.40;102129.13;5176055;28;20077;-79
2022/05/05 10:44:23;;;;;;;34.53;29.83;;;;;;;20.45;42.92;102126.44;5176984;28;20030;-82
2022/05/05 10:47:05;;;;;;;34.00;29.00;;;;;;;20.57;42.84;102129.03;5176418;28;20038;-79
2022/05/05 10:49:37;;;;;;;37.23;29.43;;;;;;;20.65;42.28;102132.75;5176704;28;20093;-84
2022/05/05 10:52:08;;;;;;;33.87;29.90;;;;;;;20.77;42.33;102122.91;5174406;28;20122;-84
2022/05/05 10:54:41;;;;;;;37.00;30.43;;;;;;;20.69;41.91;102125.38;5176636;28;20500;-79
2022/05/05 10:57:25;;;;;;;33.08;29.45;;;;;;;20.38;42.48;102133.22;5177359;28;20026;-79
2022/05/05 11:00:08;;;;;;;36.42;28.98;;;;;;;20.84;42.40;102131.22;5176284;28;20129;-79
2022/05/05 11:02:58;;;;;;;32.05;28.70;;;;;;;20.95;42.36;102118.84;5174169;28;20070;-86
2022/05/05 11:05:30;;;;;;;34.30;29.37;;;;;;;20.98;42.08;102126.59;5175851;28;20121;-85
2022/05/05 11:08:08;;;;;;;36.80;30.67;;;;;;;20.74;42.72;102125.81;5191543;28;20030;-80
2022/05/05 11:10:45;;;;;;;35.00;29.40;;;;;;;21.31;41.82;102115.84;5191579;28;20030;-84
2022/05/05 11:13:38;;;;;;;36.50;32.13;;;;;;;21.36;42.84;102121.63;5186858;28;20113;-74
2022/05/05 11:22:25;;;;;;;34.77;29.03;;;;;;;21.64;41.07;102125.38;5172208;28;20079;-73
2022/05/05 11:24:56;;;;;;;;;;;;;;;22.18;40.63;102118.97;5176430;28;20040;-71
2022/05/05 11:27:30;;;;;;;40.38;30.88;;;;;;;22.06;39.84;102120.09;5175384;28;20776;-73
2022/05/05 11:30:02;;;;;;;34.17;27.05;;;;;;;22.08;39.29;102107.47;5178018;28;20018;-77
2022/05/05 11:32:33;;;;;;;32.22;26.95;;;;;;;22.08;39.95;102107.47;5174721;28;20182;-74
2022/05/05 11:35:06;;;;;;;31.65;26.80;;;;;;;22.27;39.97;102111.97;5177565;28;20154;-73
2022/05/05 11:37:42;;;;;;;34.20;27.40;;;;;;;22.34;39.12;102112.25;5176894;28;20030;-79
2022/05/05 11:40:13;;;;;;;34.28;28.27;;;;;;;22.03;38.85;102117.69;5176705;28;20057;-79
2022/05/05 11:45:37;;;;;;;33.00;27.92;;;;;;;21.99;40.13;102115.28;5176960;28;20046;-72
2022/05/05 11:48:16;;;;;;;30.85;27.75;;;;;;;22.48;38.84;102119.00;5180036;28;20082;-75
2022/05/05 11:50:47;;;;;;;39.08;29.17;;;;;;;22.37;37.91;102111.97;5176710;28;20514;-70
2022/05/05 11:53:19;;;;;;;34.10;26.25;;;;;;;22.12;38.20;102114.19;5179872;28;20526;-71
2022/05/05 11:55:52;;;;;;;29.88;25.02;;;;;;;22.05;37.96;102110.38;5180451;28;20038;-68
2022/05/05 12:04:04;;;;;;;27.85;22.70;;;;;;;22.42;38.54;102103.53;5180382;28;20031;-76
2022/05/05 12:06:38;;;;;;;31.48;25.90;;;;;;;22.35;38.33;102104.09;5179931;28;20030;-73
2022/05/05 12:09:09;;;;;;;;;;;;;;;22.78;38.46;102103.81;5179141;28;20041;-73
2022/05/05 12:11:42;;;;;;;30.45;24.98;;;;;;;21.88;38.65;102099.41;5177509;28;20463;-74
2022/05/05 12:14:14;;;;;;;26.70;23.02;;;;;;;22.31;38.65;102105.34;5179391;28;20054;-69
2022/05/05 12:16:45;;;;;;;27.50;24.05;;;;;;;22.38;38.48;102102.16;5178965;28;20058;-68
2022/05/05 12:19:20;;;;;;;27.13;23.80;;;;;;;22.44;38.04;102091.75;5179681;28;20052;-72
2022/05/05 12:21:54;;;;;;;25.33;22.58;;;;;;;22.46;37.63;102096.94;5177793;28;20124;-74